Time;durP1;ratioP1;P1;durP2;ratioP2;P2;SDS_P1;SDS_P2;PMS_P1;PMS_P2;Temp;Humidity;BMP_temperature;BMP_pressure;BME280_temperature;BME280_humidity;BME280_pressure;Samples;Min_cycle;Max_cycle;Signal;HPM_P1;HPM_P2
2023/05/21 00:02:03;;;;;;;39.83;28.53;;;;;;;12.95;74.83;101371.47;5066072;28;20320;-71
2023/05/21 00:04:33;;;;;;;42.03;28.30;;;;;;;12.90;75.03;101369.03;5068748;28;20640;-71
2023/05/21 00:07:00;;;;;;;38.53;26.70;;;;;;;12.86;75.41;101365.44;5062742;28;20197;-71
2023/05/21 00:09:27;;;;;;;41.90;28.90;;;;;;;12.80;74.91;101364.09;5066352;28;20209;-71
2023/05/21 00:11:54;;;;;;;41.87;28.20;;;;;;;12.75;74.90;101362.41;5052531;28;20220;-71
2023/05/21 00:14:20;;;;;;;39.83;27.23;;;;;;;12.72;74.98;101363.03;5067386;28;20788;-71
2023/05/21 00:16:46;;;;;;;39.50;27.90;;;;;;;12.67;75.00;101359.78;5064622;28;20208;-71
2023/05/21 00:19:13;;;;;;;42.20;28.83;;;;;;;12.62;75.25;101357.34;5067557;28;20300;-71
2023/05/21 00:21:41;;;;;;;39.70;28.23;;;;;;;12.58;75.10;101357.19;5068317;28;20236;-71
2023/05/21 00:24:07;;;;;;;40.20;28.20;;;;;;;12.55;75.04;101349.88;5068886;28;20209;-71
2023/05/21 00:26:35;;;;;;;43.03;27.30;;;;;;;12.51;75.84;101346.31;5062265;28;20200;-71
2023/05/21 00:29:02;;;;;;;40.30;27.80;;;;;;;12.49;75.79;101345.06;5063117;28;20188;-71
2023/05/21 00:31:28;;;;;;;39.50;27.20;;;;;;;12.47;76.08;101344.63;5064026;28;20215;-71
2023/05/21 00:33:58;;;;;;;42.53;29.10;;;;;;;12.44;75.69;101343.41;5068972;28;20298;-71
2023/05/21 00:36:25;;;;;;;46.67;30.60;;;;;;;12.44;76.35;101343.41;5063743;28;20221;-71
2023/05/21 00:38:52;;;;;;;45.97;30.07;;;;;;;12.43;76.49;101349.00;5062673;28;20228;-71
2023/05/21 00:41:21;;;;;;;43.90;32.47;;;;;;;12.44;76.00;101337.31;5070324;28;20234;-71
2023/05/21 00:43:49;;;;;;;49.53;33.80;;;;;;;12.44;76.43;101335.44;5045715;28;20221;-71
2023/05/21 00:46:19;;;;;;;50.40;34.63;;;;;;;12.47;nan;101336.69;5064626;28;20202;-71
2023/05/21 00:48:47;;;;;;;52.50;35.27;;;;;;;12.46;76.80;101327.94;5067509;28;20202;-71
2023/05/21 00:51:14;;;;;;;54.77;34.87;;;;;;;12.50;76.04;101328.09;5069669;28;20234;-71
2023/05/21 00:53:41;;;;;;;54.17;35.80;;;;;;;12.53;76.71;101327.47;5052496;28;20244;-71
2023/05/21 00:56:07;;;;;;;53.03;34.17;;;;;;;12.55;76.44;101322.59;5052993;28;20196;-71
2023/05/21 00:58:35;;;;;;;54.03;34.80;;;;;;;12.58;76.99;101330.69;5068384;28;20226;-71
2023/05/21 01:01:05;;;;;;;57.70;35.80;;;;;;;12.61;76.65;101330.06;5049702;28;20241;-71
2023/05/21 01:03:37;;;;;;;54.10;34.90;;;;;;;12.64;77.07;101329.44;5062218;28;20278;-71
2023/05/21 01:06:08;;;;;;;54.27;36.33;;;;;;;12.67;76.77;101326.13;5052823;28;20197;-71
2023/05/21 01:08:36;;;;;;;57.87;35.03;;;;;;;12.72;78.36;101322.50;5063910;28;20612;-71
2023/05/21 01:11:03;;;;;;;54.23;35.33;;;;;;;12.70;75.46;101314.88;5061936;28;20714;-71
2023/05/21 01:13:31;;;;;;;55.13;33.17;;;;;;;12.73;76.25;101319.53;5066522;28;20204;-71
2023/05/21 01:15:58;;;;;;;50.57;34.17;;;;;;;12.77;77.11;101323.09;5067025;28;20203;-71
2023/05/21 01:18:26;;;;;;;53.47;34.77;;;;;;;12.79;76.87;101320.88;5067083;28;20784;-71
2023/05/21 01:20:54;;;;;;;51.67;33.60;;;;;;;12.81;77.49;101312.63;5046009;28;20221;-71
2023/05/21 01:23:21;;;;;;;49.83;33.63;;;;;;;12.83;76.75;101313.84;5045292;28;20287;-71
2023/05/21 01:25:48;;;;;;;51.13;33.33;;;;;;;12.83;76.25;101311.22;5070692;28;20196;-71
2023/05/21 01:28:14;;;;;;;51.07;34.43;;;;;;;12.84;77.03;101301.41;5050104;28;20682;-71
2023/05/21 01:30:43;;;;;;;45.33;33.63;;;;;;;12.84;77.44;101301.41;5050190;28;20223;-71
2023/05/21 01:33:16;;;;;;;49.07;34.70;;;;;;;12.82;76.84;101296.41;5052314;28;20693;-71
2023/05/21 01:35:47;;;;;;;50.53;32.67;;;;;;;12.83;77.61;101299.84;5064634;28;20200;-71
2023/05/21 01:38:17;;;;;;;51.63;34.80;;;;;;;12.81;77.46;101296.72;5045962;28;20308;-71
2023/05/21 01:40:53;;;;;;;50.47;33.00;;;;;;;12.80;77.58;101298.63;5047753;28;20213;-71
2023/05/21 01:43:20;;;;;;;48.00;32.57;;;;;;;12.76;77.21;101296.91;5064690;28;20552;-71
2023/05/21 01:45:48;;;;;;;42.30;30.50;;;;;;;12.72;77.09;101291.47;5049404;28;20573;-70
2023/05/21 01:48:17;;;;;;;42.57;30.87;;;;;;;12.68;77.61;101295.13;5069890;28;20569;-71
2023/05/21 01:50:44;;;;;;;49.73;32.37;;;;;;;12.64;76.62;101300.28;5064012;28;20219;-71
2023/05/21 01:53:11;;;;;;;42.97;30.43;;;;;;;12.60;76.85;101296.72;5054655;28;20208;-71
2023/05/21 01:55:40;;;;;;;46.60;32.37;;;;;;;12.56;76.55;101297.66;5067150;28;20295;-71
2023/05/21 01:58:08;;;;;;;46.73;32.90;;;;;;;12.54;76.87;101294.56;5049831;28;20200;-71
2023/05/21 02:00:36;;;;;;;45.53;31.27;;;;;;;12.49;76.35;101294.75;5045318;28;20219;-71
2023/05/21 02:03:02;;;;;;;40.33;30.37;;;;;;;12.48;76.49;101295.84;5071293;28;20195;-71
2023/05/21 02:05:29;;;;;;;45.70;31.13;;;;;;;12.44;77.55;101293.06;5055827;28;20288;-71
2023/05/21 02:07:55;;;;;;;43.20;31.20;;;;;;;12.42;78.30;101294.47;5059407;28;20204;-71
2023/05/21 02:10:22;;;;;;;47.97;33.37;;;;;;;12.41;77.93;101298.22;5068353;28;20211;-70
2023/05/21 02:12:48;;;;;;;53.60;33.87;;;;;;;12.41;78.10;101292.91;5067541;28;20210;-71
2023/05/21 02:15:17;;;;;;;48.93;34.27;;;;;;;12.40;77.74;101289.50;5055617;28;20206;-71
2023/05/21 02:17:44;;;;;;;49.40;34.53;;;;;;;12.41;78.23;101298.22;5069421;28;20196;-71
2023/05/21 02:20:12;;;;;;;50.13;34.37;;;;;;;12.40;77.20;101291.38;5053545;28;20691;-71
2023/05/21 02:22:40;;;;;;;52.80;36.00;;;;;;;12.41;78.11;101292.91;5070281;28;20183;-71
2023/05/21 02:25:08;;;;;;;53.67;35.63;;;;;;;12.42;77.83;101291.84;5053346;28;20217;-71
2023/05/21 02:27:36;;;;;;;54.83;37.23;;;;;;;12.42;77.82;101284.66;5043523;28;20195;-71
2023/05/21 02:30:03;;;;;;;57.80;36.90;;;;;;;12.45;79.42;101281.38;5050257;28;20200;-70
2023/05/21 02:32:32;;;;;;;55.83;37.43;;;;;;;12.44;77.99;101279.81;5070822;28;20200;-71
2023/05/21 02:34:59;;;;;;;55.63;36.30;;;;;;;12.44;77.99;101282.47;5069481;28;20196;-71
2023/05/21 02:37:26;;;;;;;56.63;37.63;;;;;;;12.44;77.65;101282.47;5053231;28;20247;-71
2023/05/21 02:39:53;;;;;;;51.53;36.03;;;;;;;12.45;78.82;101284.03;5056290;28;20775;-71
2023/05/21 02:42:19;;;;;;;55.93;36.37;;;;;;;12.46;78.99;101285.56;5073267;28;20212;-71
2023/05/21 02:44:46;;;;;;;56.30;37.93;;;;;;;12.45;78.86;101275.28;5053116;28;20262;-71
2023/05/21 02:47:12;;;;;;;55.43;37.17;;;;;;;12.45;78.30;101280.59;5054773;28;20224;-71
2023/05/21 02:49:40;;;;;;;58.53;37.63;;;;;;;12.46;78.67;101282.91;5054203;28;20206;-71
2023/05/21 02:52:06;;;;;;;61.97;39.93;;;;;;;12.46;78.51;101277.63;5051836;28;20219;-71
2023/05/21 02:54:33;;;;;;;61.30;42.17;;;;;;;12.49;79.18;101274.34;5053567;28;20210;-71
2023/05/21 02:57:00;;;;;;;59.90;39.30;;;;;;;12.52;80.17;101273.69;5049703;28;20299;-71
2023/05/21 02:59:26;;;;;;;58.80;39.57;;;;;;;12.53;78.29;101271.81;5045060;28;20210;-71
2023/05/21 03:01:52;;;;;;;57.67;38.13;;;;;;;12.53;79.15;101272.59;5046024;28;20231;-70
2023/05/21 03:04:20;;;;;;;60.70;38.30;;;;;;;12.55;78.92;101264.31;5046802;28;20717;-71
2023/05/21 03:06:48;;;;;;;59.50;39.13;;;;;;;12.56;79.77;101268.50;5054252;28;20199;-71
2023/05/21 03:09:15;;;;;;;58.13;39.37;;;;;;;12.56;79.63;101274.59;5067902;28;20674;-71
2023/05/21 03:11:42;;;;;;;54.23;37.27;;;;;;;12.55;79.22;101265.09;5070786;28;20275;-71
2023/05/21 03:14:09;;;;;;;53.57;35.57;;;;;;;12.56;79.26;101271.16;5054278;28;20568;-71
2023/05/21 03:16:36;;;;;;;56.10;36.63;;;;;;;12.54;79.25;101266.22;5054051;28;20204;-71
2023/05/21 03:19:03;;;;;;;58.73;38.23;;;;;;;12.54;79.98;101273.38;5054070;28;20217;-71
2023/05/21 03:21:31;;;;;;;54.50;37.70;;;;;;;12.53;79.47;101269.94;5053246;28;20218;-71
2023/05/21 03:23:59;;;;;;;62.20;37.53;;;;;;;12.51;79.46;101282.75;5048608;28;20197;-71
2023/05/21 03:26:26;;;;;;;61.70;38.40;;;;;;;12.49;80.00;101286.81;5055173;28;20288;-71
2023/05/21 03:28:52;;;;;;;56.57;37.90;;;;;;;12.48;80.32;101277.31;5053357;28;20202;-71
2023/05/21 03:31:19;;;;;;;50.40;34.20;;;;;;;12.46;79.92;101280.28;5053289;28;20279;-71
2023/05/21 03:34:02;;;;;;;57.23;38.77;;;;;;;12.46;79.63;101274.97;5053038;28;20207;-71
2023/05/21 03:36:31;;;;;;;61.67;39.07;;;;;;;12.47;79.63;101281.06;5071351;28;20209;-70
2023/05/21 03:38:59;;;;;;;64.33;41.60;;;;;;;12.47;79.22;101279.16;5061585;28;20240;-71
2023/05/21 03:41:26;;;;;;;68.03;41.43;;;;;;;12.50;79.84;101281.19;5054493;28;20244;-71
2023/05/21 03:44:02;;;;;;;65.03;41.30;;;;;;;12.54;79.40;101273.38;5053311;28;20227;-71
2023/05/21 03:46:36;;;;;;;66.47;40.57;;;;;;;12.57;78.96;101276.16;5059321;28;20575;-71
2023/05/21 03:49:06;;;;;;;62.33;39.63;;;;;;;12.61;79.70;101271.75;5081818;28;20693;-71
2023/05/21 03:51:37;;;;;;;64.30;41.53;;;;;;;12.65;79.03;101269.25;5055991;28;20335;-71
2023/05/21 03:54:05;;;;;;;68.80;43.00;;;;;;;12.70;79.66;101274.34;5048963;28;20396;-71
2023/05/21 03:56:31;;;;;;;63.03;41.63;;;;;;;12.74;79.49;101270.72;5052067;28;20254;-71
2023/05/21 03:58:58;;;;;;;67.80;43.60;;;;;;;12.79;79.10;101265.22;5073396;28;20262;-71
2023/05/21 04:01:24;;;;;;;66.20;42.70;;;;;;;12.85;79.32;101274.56;5048596;28;20218;-71
2023/05/21 04:03:52;;;;;;;67.20;42.67;;;;;;;12.92;79.17;101269.50;5053216;28;20200;-71
2023/05/21 04:06:22;;;;;;;73.00;43.03;;;;;;;13.02;79.69;101268.38;5049753;28;20213;-71
2023/05/21 04:08:48;;;;;;;65.27;42.83;;;;;;;13.12;80.49;101273.28;5071694;28;20212;-71
2023/05/21 04:11:16;;;;;;;64.63;42.17;;;;;;;13.22;80.89;101267.56;5047921;28;20251;-70
2023/05/21 04:13:42;;;;;;;67.73;43.43;;;;;;;13.32;80.48;101275.13;5054083;28;20210;-71
2023/05/21 04:16:09;;;;;;;63.37;41.60;;;;;;;13.43;81.11;101278.91;5082514;28;20200;-71
2023/05/21 04:18:36;;;;;;;63.80;42.53;;;;;;;13.51;79.65;101275.41;5065646;28;20199;-71
2023/05/21 04:21:03;;;;;;;58.07;39.73;;;;;;;13.62;79.83;101277.31;5050145;28;20566;-71
2023/05/21 04:23:29;;;;;;;57.63;39.60;;;;;;;13.72;79.23;101281.44;5048811;28;20216;-71
2023/05/21 04:25:57;;;;;;;59.60;38.37;;;;;;;13.84;79.93;101282.25;5048490;28;20214;-71
2023/05/21 04:28:27;;;;;;;54.93;37.47;;;;;;;13.97;80.50;101275.84;5047653;28;20218;-71
2023/05/21 04:30:55;;;;;;;53.07;35.93;;;;;;;14.08;79.53;101284.16;5049677;28;20537;-71
2023/05/21 04:33:21;;;;;;;45.80;34.07;;;;;;;14.19;80.06;101277.28;5048689;28;20655;-71
2023/05/21 04:35:50;;;;;;;45.97;33.70;;;;;;;14.30;78.99;101287.19;5065562;28;20299;-71
2023/05/21 04:38:18;;;;;;;41.87;31.20;;;;;;;14.42;79.98;101289.03;5049186;28;20191;-71
2023/05/21 04:40:45;;;;;;;38.37;30.23;;;;;;;14.51;79.03;101287.81;5078242;28;20229;-71
2023/05/21 04:43:11;;;;;;;38.70;29.70;;;;;;;14.63;79.38;101295.00;5054503;28;20226;-71
2023/05/21 04:45:40;;;;;;;42.57;30.80;;;;;;;14.72;78.78;101282.34;5048871;28;20200;-71
2023/05/21 04:48:06;;;;;;;39.83;29.00;;;;;;;14.83;78.50;101294.06;5044986;28;20282;-71
2023/05/21 04:50:32;;;;;;;35.90;28.67;;;;;;;14.94;78.54;101290.63;5051119;28;20272;-71
2023/05/21 04:52:59;;;;;;;34.03;26.57;;;;;;;15.03;78.35;101288.59;5066205;28;20214;-71
2023/05/21 04:55:26;;;;;;;34.93;26.47;;;;;;;15.14;78.34;101288.88;5050027;28;20291;-71
2023/05/21 04:57:52;;;;;;;38.80;27.63;;;;;;;15.23;77.49;101292.97;5072142;28;20199;-71
2023/05/21 05:00:19;;;;;;;34.80;26.93;;;;;;;15.34;77.74;101299.38;5048438;28;20228;-71
2023/05/21 05:02:47;;;;;;;32.00;25.97;;;;;;;15.45;77.82;101291.66;5066239;28;20206;-71
2023/05/21 05:05:13;;;;;;;31.77;24.50;;;;;;;15.55;77.27;101289.28;5052438;28;20280;-71
2023/05/21 05:07:40;;;;;;;33.77;25.77;;;;;;;15.66;76.92;101292.22;5048171;28;20203;-71
2023/05/21 05:10:08;;;;;;;32.00;24.67;;;;;;;15.75;77.03;101290.97;5068124;28;20211;-71
2023/05/21 05:12:34;;;;;;;31.87;25.53;;;;;;;15.85;76.91;101287.00;5065531;28;20204;-71
2023/05/21 05:15:00;;;;;;;29.30;23.87;;;;;;;15.94;76.18;101287.63;5052307;28;20236;-71
2023/05/21 05:17:27;;;;;;;29.43;23.53;;;;;;;16.01;75.92;101285.09;5044023;28;20287;-71
2023/05/21 05:19:55;;;;;;;30.90;23.90;;;;;;;16.10;76.09;101280.38;5045149;28;20217;-71
2023/05/21 05:22:21;;;;;;;29.17;23.50;;;;;;;16.18;75.84;101280.19;5048753;28;20263;-71
2023/05/21 05:24:48;;;;;;;31.23;23.50;;;;;;;16.27;75.16;101274.69;5062974;28;20222;-71
2023/05/21 05:27:14;;;;;;;27.67;22.70;;;;;;;16.34;75.47;101275.63;5045377;28;20199;-71
2023/05/21 05:29:40;;;;;;;29.40;22.43;;;;;;;16.42;75.00;101274.72;5047685;28;20194;-71
2023/05/21 05:32:07;;;;;;;31.87;22.47;;;;;;;16.50;75.12;101275.63;5052111;28;20230;-71
2023/05/21 05:34:34;;;;;;;28.07;22.83;;;;;;;16.58;74.70;101274.66;5047149;28;20227;-71
2023/05/21 05:37:03;;;;;;;27.17;22.10;;;;;;;16.65;74.55;101280.91;5050961;28;20298;-71
2023/05/21 05:39:29;;;;;;;26.63;21.00;;;;;;;16.71;74.63;101274.19;5046942;28;20789;-71
2023/05/21 05:41:56;;;;;;;27.10;21.60;;;;;;;16.78;74.19;101278.91;5069229;28;20210;-71
2023/05/21 05:44:22;;;;;;;26.30;20.83;;;;;;;16.83;73.87;101287.41;5044137;28;20741;-71
2023/05/21 05:46:49;;;;;;;26.87;21.57;;;;;;;16.90;73.44;101276.09;5065021;28;20664;-71
2023/05/21 05:49:15;;;;;;;24.57;20.40;;;;;;;16.97;73.44;101278.91;5055175;28;20210;-71
2023/05/21 05:51:42;;;;;;;24.60;20.57;;;;;;;17.02;73.21;101275.97;5070562;28;20267;-71
2023/05/21 05:54:09;;;;;;;25.00;20.67;;;;;;;17.07;73.04;101276.44;5051515;28;20596;-71
2023/05/21 05:56:36;;;;;;;22.37;19.97;;;;;;;17.12;72.75;101273.50;5045199;28;20498;-71
2023/05/21 05:59:04;;;;;;;23.53;19.90;;;;;;;17.18;72.94;101269.41;5069991;28;20197;-71
2023/05/21 06:01:33;;;;;;;23.33;19.07;;;;;;;17.22;72.15;101272.94;5065039;28;20266;-71
2023/05/21 06:03:59;;;;;;;23.33;19.80;;;;;;;17.28;72.58;101274.19;5045812;28;20209;-71
2023/05/21 06:06:26;;;;;;;24.03;20.53;;;;;;;17.33;72.56;101275.81;5049616;28;20190;-71
2023/05/21 06:08:53;;;;;;;21.83;19.13;;;;;;;17.38;72.19;101275.53;5051241;28;20202;-71
2023/05/21 06:11:21;;;;;;;23.87;19.93;;;;;;;17.44;71.83;101276.81;5067735;28;20673;-71
2023/05/21 06:13:47;;;;;;;23.13;18.47;;;;;;;17.50;72.14;101270.81;5050044;28;20194;-71
2023/05/21 06:16:16;;;;;;;26.53;19.37;;;;;;;17.55;71.99;101265.16;5062110;28;20223;-71
2023/05/21 06:18:43;;;;;;;24.63;19.93;;;;;;;17.61;71.79;101273.66;5059960;28;20233;-70
2023/05/21 06:21:09;;;;;;;22.67;19.40;;;;;;;17.67;71.52;101274.91;5045969;28;20250;-71
2023/05/21 06:23:36;;;;;;;21.67;17.53;;;;;;;17.74;71.66;101277.72;5047869;28;20199;-71
2023/05/21 06:26:03;;;;;;;23.30;18.00;;;;;;;17.81;70.80;101275.91;5047150;28;20253;-71
2023/05/21 06:28:31;;;;;;;22.53;17.60;;;;;;;17.88;71.62;101272.59;5049138;28;20293;-71
2023/05/21 06:30:58;;;;;;;22.87;18.47;;;;;;;17.94;71.14;101274.63;5043550;28;20211;-71
2023/05/21 06:33:27;;;;;;;20.50;18.30;;;;;;;18.04;70.35;101278.59;5048153;28;20199;-71
2023/05/21 06:35:53;;;;;;;20.37;17.13;;;;;;;18.14;70.65;101280.66;5045028;28;20206;-71
2023/05/21 06:38:19;;;;;;;20.10;16.50;;;;;;;18.23;70.50;101276.63;5045320;28;20198;-71
2023/05/21 06:40:47;;;;;;;21.50;16.10;;;;;;;18.36;70.12;101274.53;5065659;28;20296;-71
2023/05/21 06:43:20;;;;;;;19.07;16.53;;;;;;;18.49;70.12;101268.63;5049544;28;20238;-71
2023/05/21 06:46:08;;;;;;;18.03;15.40;;;;;;;18.63;69.79;101274.13;5067719;28;20201;-71
2023/05/21 06:48:39;;;;;;;19.70;16.17;;;;;;;18.76;68.51;101280.81;5071940;28;20211;-71
2023/05/21 06:51:06;;;;;;;19.83;16.83;;;;;;;18.88;68.82;101285.94;5047584;28;20383;-71
2023/05/21 06:53:32;;;;;;;16.73;14.90;;;;;;;18.99;68.98;101272.69;5049975;28;20194;-71
2023/05/21 06:55:59;;;;;;;18.23;14.80;;;;;;;19.12;68.34;101279.34;5048955;28;20745;-71
2023/05/21 06:58:42;;;;;;;19.83;15.40;;;;;;;19.23;67.84;101281.03;5049849;28;20252;-71
2023/05/21 07:01:11;;;;;;;18.30;14.87;;;;;;;19.32;66.72;101278.06;5048250;28;20230;-71
2023/05/21 07:03:38;;;;;;;17.03;13.97;;;;;;;19.40;66.88;101274.34;5049983;28;20557;-71
2023/05/21 07:06:05;;;;;;;15.20;13.27;;;;;;;19.48;67.06;101281.28;5049451;28;20194;-71
2023/05/21 07:08:31;;;;;;;16.23;13.63;;;;;;;19.52;67.04;101272.16;5047406;28;20718;-71
2023/05/21 07:10:58;;;;;;;15.57;13.50;;;;;;;19.56;65.85;101272.19;5045938;28;20720;-71
2023/05/21 07:13:25;;;;;;;15.23;13.03;;;;;;;19.59;65.18;101266.84;5044871;28;20198;-71
2023/05/21 07:15:52;;;;;;;16.67;13.20;;;;;;;19.60;64.31;101272.97;5060243;28;20196;-71
2023/05/21 07:18:21;;;;;;;19.20;13.57;;;;;;;19.62;64.52;101282.19;5071788;28;20202;-71
2023/05/21 07:20:48;;;;;;;15.43;13.03;;;;;;;19.65;65.35;101272.63;5050683;28;20315;-71
2023/05/21 07:23:15;;;;;;;14.53;13.00;;;;;;;19.68;65.61;101272.69;5047176;28;20197;-71
2023/05/21 07:25:42;;;;;;;15.30;12.93;;;;;;;19.70;65.14;101277.66;5063370;28;20210;-71
2023/05/21 07:28:08;;;;;;;16.93;14.90;;;;;;;19.70;64.35;101265.03;5045692;28;20205;-71
2023/05/21 07:30:35;;;;;;;14.17;12.63;;;;;;;19.74;64.75;101262.38;5061877;28;20209;-71
2023/05/21 07:33:04;;;;;;;16.00;12.17;;;;;;;19.78;64.94;101266.66;5051832;28;20271;-71
2023/05/21 07:35:31;;;;;;;15.47;12.20;;;;;;;19.78;62.99;101258.63;5047151;28;20214;-71
2023/05/21 07:37:58;;;;;;;14.43;12.10;;;;;;;19.81;63.60;101265.91;5042199;28;20199;-71
2023/05/21 07:40:24;;;;;;;13.60;12.20;;;;;;;19.84;63.69;101254.44;5061119;28;20230;-71
2023/05/21 07:42:51;;;;;;;15.00;12.30;;;;;;;19.91;64.59;101259.84;5061127;28;20222;-71
2023/05/21 07:45:19;;;;;;;15.50;12.60;;;;;;;19.97;64.06;101261.03;5063713;28;20285;-71
2023/05/21 07:47:46;;;;;;;14.50;12.20;;;;;;;20.03;63.40;101258.81;5044881;28;20191;-71
2023/05/21 07:50:14;;;;;;;14.97;12.33;;;;;;;20.12;63.69;101256.59;5046792;28;20199;-71
2023/05/21 07:52:42;;;;;;;16.70;12.80;;;;;;;20.21;61.96;101262.41;5059828;28;20205;-71
2023/05/21 07:55:09;;;;;;;14.30;12.10;;;;;;;20.31;63.43;101261.69;5046749;28;20306;-71
2023/05/21 07:57:36;;;;;;;13.30;11.73;;;;;;;20.40;63.19;101252.19;5045735;28;20763;-71
2023/05/21 08:00:09;;;;;;;13.67;12.20;;;;;;;20.52;61.75;101251.09;5063685;28;20194;-71
2023/05/21 08:02:41;;;;;;;13.17;11.67;;;;;;;20.63;61.65;101265.31;5061647;28;20201;-71
2023/05/21 08:05:10;;;;;;;13.80;11.70;;;;;;;20.74;60.65;101258.13;5046766;28;20203;-71
2023/05/21 08:07:38;;;;;;;13.93;11.73;;;;;;;20.83;61.47;101270.03;5062144;28;20195;-71
2023/05/21 08:10:07;;;;;;;14.13;12.10;;;;;;;20.94;61.22;101267.41;5047974;28;20205;-71
2023/05/21 08:12:34;;;;;;;13.67;11.83;;;;;;;21.04;60.61;101275.50;5046789;28;20638;-71
2023/05/21 08:15:01;;;;;;;14.90;11.33;;;;;;;21.13;60.28;101272.47;5046628;28;20706;-71
2023/05/21 08:17:28;;;;;;;14.67;11.43;;;;;;;21.23;59.72;101275.19;5046369;28;20205;-71
2023/05/21 08:19:54;;;;;;;16.90;12.40;;;;;;;21.33;59.94;101273.66;5043167;28;20669;-71
2023/05/21 08:22:20;;;;;;;14.07;11.33;;;;;;;21.40;58.52;101266.41;5062096;28;20218;-71
2023/05/21 08:24:47;;;;;;;12.73;11.27;;;;;;;21.45;58.18;101268.72;5060255;28;20244;-71
2023/05/21 08:27:15;;;;;;;13.33;11.93;;;;;;;21.51;59.20;101272.56;5045908;28;20201;-71
2023/05/21 08:29:42;;;;;;;13.53;11.00;;;;;;;21.57;59.10;101267.59;5042781;28;20199;-71
2023/05/21 08:32:10;;;;;;;12.13;10.93;;;;;;;21.66;56.69;101268.72;5046252;28;20297;-71
2023/05/21 08:34:36;;;;;;;13.73;11.33;;;;;;;21.75;58.08;101268.38;5047660;28;20202;-71
2023/05/21 08:37:20;;;;;;;12.57;10.90;;;;;;;21.83;57.82;101269.94;5020631;28;20748;-71
2023/05/21 08:40:00;;;;;;;14.60;11.33;;;;;;;21.93;57.95;101275.28;5022792;28;20203;-71
2023/05/21 08:42:44;;;;;;;15.33;11.57;;;;;;;22.01;56.46;101270.69;5023719;28;20227;-71
2023/05/21 08:45:20;;;;;;;12.80;11.07;;;;;;;22.06;56.76;101263.00;5024092;28;20262;-71
2023/05/21 08:47:47;;;;;;;12.73;11.43;;;;;;;22.09;55.85;101264.91;5024446;28;20199;-71
2023/05/21 08:50:18;;;;;;;12.07;10.80;;;;;;;22.12;54.76;101266.84;5023688;28;20231;-71
2023/05/21 08:52:45;;;;;;;14.20;11.37;;;;;;;22.15;57.14;101263.34;5020818;28;20204;-71
2023/05/21 08:55:12;;;;;;;12.60;11.25;;;;;;;22.19;56.32;101266.06;5038276;28;20578;-71
2023/05/21 08:57:43;;;;;;;13.43;10.68;;;;;;;22.21;56.34;101256.44;5023156;28;20294;-71
2023/05/21 09:00:11;;;;;;;12.10;10.80;;;;;;;22.26;55.14;101263.34;5036861;28;20709;-71
2023/05/21 09:02:42;;;;;;;11.23;10.13;;;;;;;22.29;54.54;101268.72;5024342;28;20700;-71
2023/05/21 09:05:10;;;;;;;13.65;10.75;;;;;;;22.35;56.17;101263.72;5038823;28;20265;-71
2023/05/21 09:07:43;;;;;;;12.05;10.00;;;;;;;22.39;55.46;101259.06;5020494;28;20857;-71
2023/05/21 09:10:35;;;;;;;11.07;9.98;;;;;;;22.44;55.68;101256.03;5039555;28;20227;-71
2023/05/21 09:13:03;;;;;;;11.15;10.05;;;;;;;22.51;54.69;101258.72;5039984;28;20325;-71
2023/05/21 09:15:31;;;;;;;11.35;10.10;;;;;;;22.56;54.84;101256.38;5020890;28;20211;-71
2023/05/21 09:17:57;;;;;;;12.35;10.52;;;;;;;22.63;54.45;101255.59;5022115;28;20654;-71
2023/05/21 09:20:39;;;;;;;12.13;10.40;;;;;;;22.69;55.32;101254.81;5035466;28;20285;-71
2023/05/21 09:23:11;;;;;;;9.77;8.73;;;;;;;22.77;54.25;101258.97;5035417;28;20199;-71
2023/05/21 09:25:38;;;;;;;10.80;9.52;;;;;;;22.83;54.63;101262.06;5018195;28;20274;-71
2023/05/21 09:28:16;;;;;;;12.60;9.68;;;;;;;22.90;54.49;101251.25;5021934;28;20234;-71
2023/05/21 09:30:47;;;;;;;11.43;9.02;;;;;;;22.98;51.64;101252.75;5022205;28;20226;-71
2023/05/21 09:33:24;;;;;;;11.70;9.63;;;;;;;23.06;52.11;101257.69;5019826;28;20203;-71
2023/05/21 09:35:51;;;;;;;10.18;9.13;;;;;;;23.14;52.86;101261.91;5018135;28;20207;-71
2023/05/21 09:38:21;;;;;;;11.45;9.63;;;;;;;23.26;52.69;101259.94;5022485;28;20221;-71
2023/05/21 09:40:47;;;;;;;10.55;9.52;;;;;;;23.36;52.67;101254.47;5021136;28;20223;-71
2023/05/21 09:43:17;;;;;;;11.02;8.77;;;;;;;23.44;52.12;101259.41;5020720;28;20210;-71
2023/05/21 09:45:51;;;;;;;9.63;8.57;;;;;;;23.53;51.75;101248.19;5020193;28;20199;-71
2023/05/21 09:48:32;;;;;;;9.73;8.38;;;;;;;23.67;50.78;101255.44;5037098;28;20191;-71
2023/05/21 09:51:08;;;;;;;9.77;7.97;;;;;;;23.73;50.87;101254.59;5018463;28;20227;-71
2023/05/21 09:53:34;;;;;;;8.75;7.93;;;;;;;23.81;50.78;101248.72;5037828;28;20209;-71
2023/05/21 09:56:01;;;;;;;8.73;7.70;;;;;;;23.92;50.43;101258.69;5037209;28;20202;-73
2023/05/21 09:58:28;;;;;;;9.07;7.93;;;;;;;24.02;50.20;101249.75;5040537;28;20969;-74
2023/05/21 10:00:55;;;;;;;9.05;8.05;;;;;;;24.12;49.59;101240.78;5039915;28;20221;-73
2023/05/21 10:03:25;;;;;;;10.15;7.40;;;;;;;24.24;49.56;101241.03;5038986;28;20769;-73
2023/05/21 10:05:55;;;;;;;8.18;7.38;;;;;;;24.36;46.48;101235.16;5041219;28;20211;-73
2023/05/21 10:08:25;;;;;;;10.32;7.18;;;;;;;24.46;49.18;101234.22;5041140;28;20199;-73
2023/05/21 10:10:51;;;;;;;9.27;6.78;;;;;;;24.60;49.35;101231.41;5040528;28;20211;-73
2023/05/21 10:13:21;;;;;;;7.57;6.32;;;;;;;24.73;48.75;101221.59;5043798;28;20473;-73
2023/05/21 10:15:54;;;;;;;6.35;5.75;;;;;;;24.87;47.71;101215.25;5041435;28;20208;-73
2023/05/21 10:18:23;;;;;;;6.93;6.00;;;;;;;24.97;45.78;101220.50;5042072;28;21654;-73
2023/05/21 10:20:50;;;;;;;6.63;5.95;;;;;;;25.09;47.47;101217.25;5042033;28;20219;-73
2023/05/21 10:23:17;;;;;;;5.95;5.30;;;;;;;25.18;46.73;101214.03;5042463;28;20192;-73
2023/05/21 10:25:44;;;;;;;6.50;5.75;;;;;;;25.26;47.05;101212.78;5045039;28;20198;-73
2023/05/21 10:28:15;;;;;;;8.10;5.82;;;;;;;25.36;45.57;101211.84;5042269;28;20207;-73
2023/05/21 10:30:42;;;;;;;9.13;5.82;;;;;;;25.44;46.01;101205.91;5042363;28;20514;-73
2023/05/21 10:33:13;;;;;;;7.65;5.88;;;;;;;25.56;44.20;101204.56;5042392;28;20199;-73
2023/05/21 10:35:40;;;;;;;5.85;5.22;;;;;;;25.63;44.28;101209.88;5041729;28;20211;-73
2023/05/21 10:38:09;;;;;;;7.18;5.72;;;;;;;25.71;43.56;101192.34;5044151;28;20199;-73
2023/05/21 10:40:35;;;;;;;6.53;5.45;;;;;;;25.81;44.26;101194.88;5044816;28;20309;-73
2023/05/21 10:43:41;;;;;;;5.97;5.35;;;;;;;25.94;44.96;101193.13;5042946;28;20706;-73
2023/05/21 10:46:22;;;;;;;5.20;4.68;;;;;;;26.01;43.55;101192.22;4983169;28;20299;-73
2023/05/21 10:49:05;;;;;;;5.13;4.60;;;;;;;26.07;42.38;101185.91;5037620;28;20215;-73
2023/05/21 10:51:40;;;;;;;6.05;5.13;;;;;;;26.21;40.80;101190.31;5042382;28;20223;-73
2023/05/21 10:54:27;;;;;;;6.22;4.57;;;;;;;26.30;40.67;101193.97;5042990;28;20210;-73
2023/05/21 10:57:05;;;;;;;4.28;3.88;;;;;;;26.37;40.07;101185.69;5043748;28;21004;-73
2023/05/21 10:59:41;;;;;;;5.10;4.13;;;;;;;26.48;41.49;101188.19;5046805;28;20199;-73
2023/05/21 11:02:11;;;;;;;4.80;4.00;;;;;;;26.55;39.82;101178.00;5044272;28;20245;-73
2023/05/21 11:04:42;;;;;;;5.93;4.88;;;;;;;26.67;40.77;101185.50;5044114;28;20203;-73
2023/05/21 11:07:08;;;;;;;6.07;5.47;;;;;;;26.73;41.13;101178.38;5042907;28;20206;-73
2023/05/21 11:09:35;;;;;;;5.95;5.05;;;;;;;26.85;40.78;101182.41;5045000;28;20219;-74
2023/05/21 11:12:03;;;;;;;6.13;5.20;;;;;;;26.87;40.38;101180.78;5041468;28;20219;-73
2023/05/21 11:14:33;;;;;;;6.25;5.65;;;;;;;26.89;40.05;101183.84;5045581;28;20195;-73
2023/05/21 11:17:01;;;;;;;7.43;5.38;;;;;;;27.00;39.96;101175.47;5043853;28;20199;-73
2023/05/21 11:19:35;;;;;;;7.20;5.53;;;;;;;27.08;40.88;101176.84;5042578;28;20195;-73